Terminal Aerodrome Forecast
Issued by NWS

Home | Current Version | Previous Version | Text Only | Print | Product List | Glossary On
Versions: 1 2 3 4 5 6 7 8 9 10
040
FTUS46 KMTR 231727
TAFSTS
TAF
KSTS 231727Z 2318/2418 32004KT P6SM FEW020 SCT200
     FM232200 26012G19KT P6SM FEW035 SCT150
     FM240400 28008KT P6SM FEW010 BKN100
     FM241000 33006KT P6SM FEW010 OVC080
     FM241700 27012KT P6SM -RA OVC060=

USA.gov is the U.S. government's official web portal to all federal, state and local government web resources and services.